sensor_id;sensor_type;location;lat;lon;timestamp;pressure;altitude;pressure_sealevel;temperature;humidity
73501;BME280;61721;42.206;25.320;2022-08-04T00:00:32;99588.38;;;23.64;49.24
73501;BME280;61721;42.206;25.320;2022-08-04T00:03:11;99584.81;;;23.63;49.58
73501;BME280;61721;42.206;25.320;2022-08-04T00:05:48;99586.66;;;23.51;49.66
73501;BME280;61721;42.206;25.320;2022-08-04T00:08:23;99594.25;;;23.42;49.37
73501;BME280;61721;42.206;25.320;2022-08-04T00:10:59;99587.38;;;23.40;49.97
73501;BME280;61721;42.206;25.320;2022-08-04T00:13:30;99589.06;;;23.41;49.66
73501;BME280;61721;42.206;25.320;2022-08-04T00:16:00;99587.81;;;23.37;49.90
73501;BME280;61721;42.206;25.320;2022-08-04T00:18:33;99585.50;;;23.40;50.33
73501;BME280;61721;42.206;25.320;2022-08-04T00:21:04;99585.91;;;23.37;49.97
73501;BME280;61721;42.206;25.320;2022-08-04T00:23:33;99590.09;;;23.40;49.84
73501;BME280;61721;42.206;25.320;2022-08-04T00:26:02;99587.22;;;23.35;50.07
73501;BME280;61721;42.206;25.320;2022-08-04T00:28:31;99584.66;;;23.40;50.02
73501;BME280;61721;42.206;25.320;2022-08-04T00:30:58;99587.75;;;23.25;49.83
73501;BME280;61721;42.206;25.320;2022-08-04T00:33:25;99583.56;;;23.23;50.35
73501;BME280;61721;42.206;25.320;2022-08-04T00:35:53;99591.75;;;23.23;49.85
73501;BME280;61721;42.206;25.320;2022-08-04T00:38:20;99602.53;;;23.18;49.82
73501;BME280;61721;42.206;25.320;2022-08-04T00:40:56;99587.34;;;23.22;49.99
73501;BME280;61721;42.206;25.320;2022-08-04T00:43:31;99586.63;;;23.15;50.48
73501;BME280;61721;42.206;25.320;2022-08-04T00:46:26;99587.88;;;23.12;50.35
73501;BME280;61721;42.206;25.320;2022-08-04T00:49:24;99595.53;;;23.03;50.49
73501;BME280;61721;42.206;25.320;2022-08-04T00:52:03;99589.03;;;23.05;50.69
73501;BME280;61721;42.206;25.320;2022-08-04T00:54:41;99598.91;;;23.06;50.74
73501;BME280;61721;42.206;25.320;2022-08-04T00:57:27;99594.69;;;23.03;50.20
73501;BME280;61721;42.206;25.320;2022-08-04T01:00:05;99590.97;;;22.97;50.47
73501;BME280;61721;42.206;25.320;2022-08-04T01:02:47;99598.16;;;22.92;50.92
73501;BME280;61721;42.206;25.320;2022-08-04T01:05:20;99595.00;;;22.95;50.92
73501;BME280;61721;42.206;25.320;2022-08-04T01:08:14;99591.94;;;22.85;50.72
73501;BME280;61721;42.206;25.320;2022-08-04T01:10:57;99600.81;;;22.80;50.88
73501;BME280;61721;42.206;25.320;2022-08-04T01:13:50;99599.34;;;22.78;50.49
73501;BME280;61721;42.206;25.320;2022-08-04T01:16:24;99607.91;;;22.81;50.82
73501;BME280;61721;42.206;25.320;2022-08-04T01:18:58;99603.38;;;22.75;50.96
73501;BME280;61721;42.206;25.320;2022-08-04T01:21:51;99602.13;;;22.71;50.82
73501;BME280;61721;42.206;25.320;2022-08-04T01:27:26;99602.19;;;22.65;51.42
73501;BME280;61721;42.206;25.320;2022-08-04T01:30:02;99595.88;;;22.64;51.26
73501;BME280;61721;42.206;25.320;2022-08-04T01:32:32;99602.84;;;22.60;51.46
73501;BME280;61721;42.206;25.320;2022-08-04T01:35:04;99594.03;;;22.58;51.37
73501;BME280;61721;42.206;25.320;2022-08-04T01:37:43;99594.00;;;22.65;51.77
73501;BME280;61721;42.206;25.320;2022-08-04T01:40:14;99595.53;;;22.54;51.38
73501;BME280;61721;42.206;25.320;2022-08-04T01:42:42;99594.31;;;22.50;51.22
73501;BME280;61721;42.206;25.320;2022-08-04T01:45:12;99584.69;;;22.47;51.48
73501;BME280;61721;42.206;25.320;2022-08-04T01:47:41;99588.69;;;22.45;51.67
73501;BME280;61721;42.206;25.320;2022-08-04T01:50:11;99594.75;;;22.47;51.90
73501;BME280;61721;42.206;25.320;2022-08-04T01:52:40;99591.44;;;22.45;51.65
73501;BME280;61721;42.206;25.320;2022-08-04T01:55:10;99594.56;;;22.42;51.92
73501;BME280;61721;42.206;25.320;2022-08-04T01:57:41;99581.78;;;22.42;52.39
73501;BME280;61721;42.206;25.320;2022-08-04T02:00:12;99585.84;;;22.33;52.24
73501;BME280;61721;42.206;25.320;2022-08-04T02:02:39;99583.31;;;22.32;52.25
73501;BME280;61721;42.206;25.320;2022-08-04T02:05:09;99586.50;;;22.29;52.28
73501;BME280;61721;42.206;25.320;2022-08-04T02:07:47;99595.56;;;22.23;52.33
73501;BME280;61721;42.206;25.320;2022-08-04T02:10:27;99595.09;;;22.26;52.75
73501;BME280;61721;42.206;25.320;2022-08-04T02:13:09;99593.91;;;22.15;52.37
73501;BME280;61721;42.206;25.320;2022-08-04T02:15:49;99600.03;;;22.10;52.18
73501;BME280;61721;42.206;25.320;2022-08-04T02:18:23;99595.03;;;22.07;52.35
73501;BME280;61721;42.206;25.320;2022-08-04T02:20:57;99602.41;;;22.00;52.42
73501;BME280;61721;42.206;25.320;2022-08-04T02:23:29;99598.00;;;21.93;52.67
73501;BME280;61721;42.206;25.320;2022-08-04T02:26:00;99609.34;;;21.96;52.78
73501;BME280;61721;42.206;25.320;2022-08-04T02:28:34;99605.97;;;21.94;52.71
73501;BME280;61721;42.206;25.320;2022-08-04T02:31:11;99608.13;;;21.79;53.47
73501;BME280;61721;42.206;25.320;2022-08-04T02:33:42;99606.53;;;21.65;53.58
73501;BME280;61721;42.206;25.320;2022-08-04T02:36:13;99607.88;;;21.43;53.87
73501;BME280;61721;42.206;25.320;2022-08-04T02:38:53;99607.91;;;21.29;54.22
73501;BME280;61721;42.206;25.320;2022-08-04T02:41:23;99611.28;;;21.12;54.77
73501;BME280;61721;42.206;25.320;2022-08-04T02:43:51;99616.72;;;21.12;54.31
73501;BME280;61721;42.206;25.320;2022-08-04T02:46:23;99613.16;;;21.05;54.85
73501;BME280;61721;42.206;25.320;2022-08-04T02:48:51;99618.59;;;21.11;55.07
73501;BME280;61721;42.206;25.320;2022-08-04T02:51:22;99619.22;;;21.26;55.53
73501;BME280;61721;42.206;25.320;2022-08-04T02:53:52;99624.47;;;21.15;55.38
73501;BME280;61721;42.206;25.320;2022-08-04T02:56:21;99622.38;;;21.10;55.46
73501;BME280;61721;42.206;25.320;2022-08-04T02:58:51;99615.88;;;21.05;55.52
73501;BME280;61721;42.206;25.320;2022-08-04T03:01:21;99617.13;;;21.09;55.55
73501;BME280;61721;42.206;25.320;2022-08-04T03:03:55;99624.66;;;21.13;55.20
73501;BME280;61721;42.206;25.320;2022-08-04T03:06:44;99623.84;;;21.19;55.41
73501;BME280;61721;42.206;25.320;2022-08-04T03:10:02;99628.63;;;21.24;55.46
73501;BME280;61721;42.206;25.320;2022-08-04T03:12:39;99632.00;;;21.19;55.62
73501;BME280;61721;42.206;25.320;2022-08-04T03:18:36;99628.44;;;21.25;55.49
73501;BME280;61721;42.206;25.320;2022-08-04T03:21:48;99623.63;;;21.27;55.37
73501;BME280;61721;42.206;25.320;2022-08-04T03:27:37;99636.16;;;21.35;54.98
73501;BME280;61721;42.206;25.320;2022-08-04T03:30:12;99634.28;;;21.36;54.53
73501;BME280;61721;42.206;25.320;2022-08-04T03:36:19;99633.63;;;21.40;54.59
73501;BME280;61721;42.206;25.320;2022-08-04T03:39:23;99632.59;;;21.34;54.63
73501;BME280;61721;42.206;25.320;2022-08-04T03:42:13;99636.75;;;21.44;54.78
73501;BME280;61721;42.206;25.320;2022-08-04T03:48:33;99639.22;;;21.65;54.06
73501;BME280;61721;42.206;25.320;2022-08-04T03:51:20;99638.94;;;21.80;53.66
73501;BME280;61721;42.206;25.320;2022-08-04T03:57:37;99634.91;;;21.95;53.47
73501;BME280;61721;42.206;25.320;2022-08-04T04:00:12;99640.97;;;22.04;53.39
73501;BME280;61721;42.206;25.320;2022-08-04T04:03:00;99644.28;;;22.12;53.15
73501;BME280;61721;42.206;25.320;2022-08-04T04:05:58;99640.25;;;22.15;53.38
73501;BME280;61721;42.206;25.320;2022-08-04T04:08:46;99644.63;;;22.23;52.63
73501;BME280;61721;42.206;25.320;2022-08-04T04:11:33;99644.19;;;22.26;53.02
73501;BME280;61721;42.206;25.320;2022-08-04T04:14:17;99640.59;;;22.32;52.89
73501;BME280;61721;42.206;25.320;2022-08-04T04:19:54;99645.97;;;22.45;52.73
73501;BME280;61721;42.206;25.320;2022-08-04T04:22:43;99646.31;;;22.55;52.52
73501;BME280;61721;42.206;25.320;2022-08-04T04:25:32;99645.78;;;22.71;52.13
73501;BME280;61721;42.206;25.320;2022-08-04T04:28:24;99642.38;;;22.76;51.78
73501;BME280;61721;42.206;25.320;2022-08-04T04:31:02;99641.91;;;22.85;51.89
73501;BME280;61721;42.206;25.320;2022-08-04T04:33:46;99637.72;;;22.83;51.73
73501;BME280;61721;42.206;25.320;2022-08-04T04:36:20;99641.91;;;22.85;51.82
73501;BME280;61721;42.206;25.320;2022-08-04T04:39:00;99642.25;;;22.95;51.83
73501;BME280;61721;42.206;25.320;2022-08-04T04:41:52;99644.34;;;22.93;52.02
73501;BME280;61721;42.206;25.320;2022-08-04T04:44:53;99647.28;;;22.92;51.95
73501;BME280;61721;42.206;25.320;2022-08-04T04:47:29;99641.31;;;23.01;51.45
73501;BME280;61721;42.206;25.320;2022-08-04T04:50:03;99640.38;;;23.14;51.44
73501;BME280;61721;42.206;25.320;2022-08-04T04:52:38;99641.91;;;23.28;51.42
73501;BME280;61721;42.206;25.320;2022-08-04T04:55:14;99640.41;;;23.32;50.92
73501;BME280;61721;42.206;25.320;2022-08-04T04:57:47;99640.13;;;23.40;50.53
73501;BME280;61721;42.206;25.320;2022-08-04T05:00:16;99638.81;;;23.43;50.51
73501;BME280;61721;42.206;25.320;2022-08-04T05:03:08;99645.91;;;23.51;51.22
73501;BME280;61721;42.206;25.320;2022-08-04T05:06:19;99652.06;;;23.64;50.91
73501;BME280;61721;42.206;25.320;2022-08-04T05:09:00;99649.84;;;23.73;50.60
73501;BME280;61721;42.206;25.320;2022-08-04T05:12:19;99646.13;;;23.85;50.10
73501;BME280;61721;42.206;25.320;2022-08-04T05:14:52;99650.72;;;24.03;49.71
73501;BME280;61721;42.206;25.320;2022-08-04T05:17:25;99653.06;;;24.18;49.56
73501;BME280;61721;42.206;25.320;2022-08-04T05:19:59;99660.97;;;24.26;49.18
73501;BME280;61721;42.206;25.320;2022-08-04T05:22:31;99662.94;;;24.37;49.10
73501;BME280;61721;42.206;25.320;2022-08-04T05:25:07;99658.94;;;24.51;48.80
73501;BME280;61721;42.206;25.320;2022-08-04T05:27:44;99658.13;;;24.62;47.84
73501;BME280;61721;42.206;25.320;2022-08-04T05:30:14;99655.84;;;24.59;47.86
73501;BME280;61721;42.206;25.320;2022-08-04T05:32:47;99651.94;;;24.67;47.63
73501;BME280;61721;42.206;25.320;2022-08-04T05:35:21;99650.63;;;24.69;47.89
73501;BME280;61721;42.206;25.320;2022-08-04T05:37:53;99653.97;;;24.71;47.72
73501;BME280;61721;42.206;25.320;2022-08-04T05:40:23;99649.59;;;24.82;47.51
73501;BME280;61721;42.206;25.320;2022-08-04T05:42:53;99660.06;;;24.85;47.36
73501;BME280;61721;42.206;25.320;2022-08-04T05:45:23;99657.25;;;24.92;47.64
73501;BME280;61721;42.206;25.320;2022-08-04T05:47:53;99663.22;;;25.00;47.19
73501;BME280;61721;42.206;25.320;2022-08-04T05:50:22;99655.84;;;25.12;46.93
73501;BME280;61721;42.206;25.320;2022-08-04T05:52:50;99657.38;;;25.20;47.11
73501;BME280;61721;42.206;25.320;2022-08-04T05:55:25;99657.00;;;25.40;46.71
73501;BME280;61721;42.206;25.320;2022-08-04T05:57:53;99647.72;;;25.52;46.61
73501;BME280;61721;42.206;25.320;2022-08-04T06:00:23;99654.75;;;25.72;46.25
73501;BME280;61721;42.206;25.320;2022-08-04T06:02:53;99653.56;;;25.68;46.38
73501;BME280;61721;42.206;25.320;2022-08-04T06:05:22;99646.06;;;25.75;45.19
73501;BME280;61721;42.206;25.320;2022-08-04T06:07:50;99648.50;;;25.88;45.56
73501;BME280;61721;42.206;25.320;2022-08-04T06:10:17;99656.44;;;26.01;45.00
73501;BME280;61721;42.206;25.320;2022-08-04T06:12:48;99652.38;;;26.15;45.10
73501;BME280;61721;42.206;25.320;2022-08-04T06:15:18;99655.59;;;26.12;44.81
73501;BME280;61721;42.206;25.320;2022-08-04T06:17:48;99649.50;;;26.22;44.03
73501;BME280;61721;42.206;25.320;2022-08-04T06:20:18;99654.09;;;26.33;44.28
73501;BME280;61721;42.206;25.320;2022-08-04T06:22:49;99643.06;;;26.45;44.29
73501;BME280;61721;42.206;25.320;2022-08-04T06:25:20;99649.06;;;26.58;44.11
73501;BME280;61721;42.206;25.320;2022-08-04T06:27:49;99640.94;;;26.80;44.01
73501;BME280;61721;42.206;25.320;2022-08-04T06:30:17;99644.97;;;26.89;43.17
73501;BME280;61721;42.206;25.320;2022-08-04T06:32:47;99646.50;;;26.97;43.66
73501;BME280;61721;42.206;25.320;2022-08-04T06:35:21;99640.81;;;27.03;43.13
73501;BME280;61721;42.206;25.320;2022-08-04T06:37:50;99643.63;;;27.08;43.00
73501;BME280;61721;42.206;25.320;2022-08-04T06:40:19;99641.16;;;27.07;42.91
73501;BME280;61721;42.206;25.320;2022-08-04T06:42:48;99649.13;;;27.25;42.87
73501;BME280;61721;42.206;25.320;2022-08-04T06:45:16;99635.44;;;27.47;42.07
73501;BME280;61721;42.206;25.320;2022-08-04T06:47:46;99645.38;;;27.70;42.05
73501;BME280;61721;42.206;25.320;2022-08-04T06:50:15;99644.13;;;27.77;40.94
73501;BME280;61721;42.206;25.320;2022-08-04T06:52:43;99648.25;;;28.01;40.91
73501;BME280;61721;42.206;25.320;2022-08-04T06:55:11;99637.59;;;29.59;37.19
73501;BME280;61721;42.206;25.320;2022-08-04T06:57:39;99642.53;;;32.51;31.86
73501;BME280;61721;42.206;25.320;2022-08-04T07:00:09;99639.59;;;34.71;27.85
73501;BME280;61721;42.206;25.320;2022-08-04T07:02:41;99629.84;;;36.07;26.08
73501;BME280;61721;42.206;25.320;2022-08-04T07:05:11;99628.69;;;38.43;23.50
73501;BME280;61721;42.206;25.320;2022-08-04T07:07:39;99630.41;;;39.51;21.79
73501;BME280;61721;42.206;25.320;2022-08-04T07:10:08;99635.63;;;41.11;20.17
73501;BME280;61721;42.206;25.320;2022-08-04T07:12:36;99630.50;;;41.25;19.88
73501;BME280;61721;42.206;25.320;2022-08-04T07:15:04;99633.28;;;39.33;21.50
73501;BME280;61721;42.206;25.320;2022-08-04T07:17:32;99638.06;;;34.60;27.45
73501;BME280;61721;42.206;25.320;2022-08-04T07:20:00;99641.16;;;31.94;31.74
73501;BME280;61721;42.206;25.320;2022-08-04T07:22:29;99644.13;;;31.08;33.25
73501;BME280;61721;42.206;25.320;2022-08-04T07:24:58;99645.16;;;30.46;34.94
73501;BME280;61721;42.206;25.320;2022-08-04T07:27:25;99639.56;;;30.31;35.81
73501;BME280;61721;42.206;25.320;2022-08-04T07:29:53;99626.25;;;30.13;35.02
73501;BME280;61721;42.206;25.320;2022-08-04T07:32:21;99633.69;;;30.07;34.72
73501;BME280;61721;42.206;25.320;2022-08-04T07:34:49;99632.03;;;30.06;35.01
73501;BME280;61721;42.206;25.320;2022-08-04T07:37:16;99631.72;;;30.03;35.53
73501;BME280;61721;42.206;25.320;2022-08-04T07:39:45;99632.84;;;29.97;35.46
73501;BME280;61721;42.206;25.320;2022-08-04T07:42:13;99622.91;;;30.01;34.48
73501;BME280;61721;42.206;25.320;2022-08-04T07:44:44;99626.03;;;30.30;34.13
73501;BME280;61721;42.206;25.320;2022-08-04T07:47:11;99627.66;;;30.21;35.42
73501;BME280;61721;42.206;25.320;2022-08-04T07:49:40;99622.19;;;30.41;34.33
73501;BME280;61721;42.206;25.320;2022-08-04T07:52:07;99627.59;;;29.95;35.32
73501;BME280;61721;42.206;25.320;2022-08-04T07:54:35;99614.69;;;30.26;34.45
73501;BME280;61721;42.206;25.320;2022-08-04T07:57:06;99613.56;;;30.17;34.52
73501;BME280;61721;42.206;25.320;2022-08-04T07:59:34;99616.06;;;30.34;34.96
73501;BME280;61721;42.206;25.320;2022-08-04T08:02:02;99621.13;;;30.62;33.88
73501;BME280;61721;42.206;25.320;2022-08-04T08:04:29;99619.75;;;30.80;33.17
73501;BME280;61721;42.206;25.320;2022-08-04T08:06:57;99611.19;;;30.76;33.60
73501;BME280;61721;42.206;25.320;2022-08-04T08:09:25;99615.03;;;30.50;34.08
73501;BME280;61721;42.206;25.320;2022-08-04T08:11:52;99600.63;;;30.38;33.31
73501;BME280;61721;42.206;25.320;2022-08-04T08:14:21;99601.72;;;30.32;33.84
73501;BME280;61721;42.206;25.320;2022-08-04T08:16:49;99600.97;;;30.46;33.21
73501;BME280;61721;42.206;25.320;2022-08-04T08:19:17;99605.38;;;30.57;33.57
73501;BME280;61721;42.206;25.320;2022-08-04T08:21:48;99605.38;;;30.57;33.08
73501;BME280;61721;42.206;25.320;2022-08-04T08:24:18;99606.50;;;30.77;32.23
73501;BME280;61721;42.206;25.320;2022-08-04T08:26:48;99593.75;;;30.96;32.38
73501;BME280;61721;42.206;25.320;2022-08-04T08:29:15;99589.34;;;31.15;32.03
73501;BME280;61721;42.206;25.320;2022-08-04T08:31:44;99587.94;;;31.28;31.90
73501;BME280;61721;42.206;25.320;2022-08-04T08:34:12;99589.84;;;31.42;30.26
73501;BME280;61721;42.206;25.320;2022-08-04T08:36:45;99591.22;;;31.35;29.93
73501;BME280;61721;42.206;25.320;2022-08-04T08:39:20;99586.47;;;31.61;29.48
73501;BME280;61721;42.206;25.320;2022-08-04T08:42:17;99587.50;;;31.75;30.27
73501;BME280;61721;42.206;25.320;2022-08-04T08:51:24;99585.16;;;32.02;29.26
73501;BME280;61721;42.206;25.320;2022-08-04T08:54:21;99577.09;;;31.57;30.29
73501;BME280;61721;42.206;25.320;2022-08-04T08:57:10;99578.72;;;31.53;29.37
73501;BME280;61721;42.206;25.320;2022-08-04T08:59:50;99564.72;;;31.24;30.29
73501;BME280;61721;42.206;25.320;2022-08-04T09:02:45;99570.44;;;31.48;30.15
73501;BME280;61721;42.206;25.320;2022-08-04T09:05:56;99556.75;;;31.81;30.24
73501;BME280;61721;42.206;25.320;2022-08-04T09:08:51;99570.03;;;31.90;29.24
73501;BME280;61721;42.206;25.320;2022-08-04T09:11:23;99569.16;;;31.94;30.13
73501;BME280;61721;42.206;25.320;2022-08-04T09:13:55;99570.47;;;32.51;28.77
73501;BME280;61721;42.206;25.320;2022-08-04T09:16:32;99562.13;;;32.90;28.02
73501;BME280;61721;42.206;25.320;2022-08-04T09:19:05;99560.94;;;33.48;26.62
73501;BME280;61721;42.206;25.320;2022-08-04T09:21:38;99563.06;;;33.80;27.13
73501;BME280;61721;42.206;25.320;2022-08-04T09:24:13;99549.00;;;33.48;27.00
73501;BME280;61721;42.206;25.320;2022-08-04T09:26:50;99554.84;;;34.13;25.66
73501;BME280;61721;42.206;25.320;2022-08-04T09:29:29;99556.19;;;34.71;25.83
73501;BME280;61721;42.206;25.320;2022-08-04T09:32:05;99547.25;;;34.88;25.19
73501;BME280;61721;42.206;25.320;2022-08-04T09:34:42;99558.09;;;34.39;25.35
73501;BME280;61721;42.206;25.320;2022-08-04T09:37:19;99541.34;;;33.87;26.74
73501;BME280;61721;42.206;25.320;2022-08-04T09:40:04;99539.66;;;33.86;26.38
73501;BME280;61721;42.206;25.320;2022-08-04T09:42:43;99531.03;;;33.64;26.50
73501;BME280;61721;42.206;25.320;2022-08-04T09:45:20;99543.19;;;33.49;26.84
73501;BME280;61721;42.206;25.320;2022-08-04T09:47:56;99530.91;;;33.32;27.08
73501;BME280;61721;42.206;25.320;2022-08-04T09:50:33;99536.84;;;33.44;26.62
73501;BME280;61721;42.206;25.320;2022-08-04T09:53:20;99529.97;;;33.84;26.15
73501;BME280;61721;42.206;25.320;2022-08-04T09:55:59;99538.75;;;34.10;25.72
73501;BME280;61721;42.206;25.320;2022-08-04T09:58:45;99533.47;;;34.64;24.76
73501;BME280;61721;42.206;25.320;2022-08-04T10:01:21;99535.66;;;35.00;23.96
73501;BME280;61721;42.206;25.320;2022-08-04T10:03:51;99533.09;;;34.71;25.05
73501;BME280;61721;42.206;25.320;2022-08-04T10:06:34;99536.81;;;34.29;25.11
73501;BME280;61721;42.206;25.320;2022-08-04T10:09:14;99526.66;;;34.57;26.02
73501;BME280;61721;42.206;25.320;2022-08-04T10:14:51;99522.63;;;34.82;24.90
73501;BME280;61721;42.206;25.320;2022-08-04T10:17:41;99519.41;;;34.74;24.75
73501;BME280;61721;42.206;25.320;2022-08-04T10:20:44;99518.69;;;34.50;25.46
73501;BME280;61721;42.206;25.320;2022-08-04T10:23:19;99513.31;;;34.40;24.80
73501;BME280;61721;42.206;25.320;2022-08-04T10:26:05;99509.97;;;34.57;25.21
73501;BME280;61721;42.206;25.320;2022-08-04T10:28:42;99504.97;;;35.05;24.18
73501;BME280;61721;42.206;25.320;2022-08-04T10:31:27;99499.50;;;35.54;23.76
73501;BME280;61721;42.206;25.320;2022-08-04T10:34:35;99491.13;;;36.18;22.43
73501;BME280;61721;42.206;25.320;2022-08-04T10:37:23;99491.31;;;37.28;21.87
73501;BME280;61721;42.206;25.320;2022-08-04T10:40:13;99484.38;;;37.73;21.41
73501;BME280;61721;42.206;25.320;2022-08-04T10:43:11;99489.34;;;38.54;20.63
73501;BME280;61721;42.206;25.320;2022-08-04T10:46:52;99495.28;;;38.35;20.76
73501;BME280;61721;42.206;25.320;2022-08-04T10:49:36;99487.84;;;38.30;19.82
73501;BME280;61721;42.206;25.320;2022-08-04T10:52:19;99490.28;;;37.63;20.63
73501;BME280;61721;42.206;25.320;2022-08-04T10:55:28;99481.44;;;37.87;20.18
73501;BME280;61721;42.206;25.320;2022-08-04T11:01:37;99477.38;;;36.66;21.39
73501;BME280;61721;42.206;25.320;2022-08-04T11:07:23;99485.13;;;36.47;21.81
73501;BME280;61721;42.206;25.320;2022-08-04T11:10:09;99475.63;;;35.89;22.03
73501;BME280;61721;42.206;25.320;2022-08-04T11:13:04;99476.81;;;35.97;22.46
73501;BME280;61721;42.206;25.320;2022-08-04T11:15:37;99476.63;;;36.29;21.71
73501;BME280;61721;42.206;25.320;2022-08-04T11:18:13;99475.97;;;36.32;21.88
73501;BME280;61721;42.206;25.320;2022-08-04T11:20:46;99469.75;;;36.58;21.31
73501;BME280;61721;42.206;25.320;2022-08-04T11:23:25;99462.53;;;36.57;21.84
73501;BME280;61721;42.206;25.320;2022-08-04T11:25:58;99456.13;;;36.56;21.56
73501;BME280;61721;42.206;25.320;2022-08-04T11:28:47;99460.78;;;36.38;22.15
73501;BME280;61721;42.206;25.320;2022-08-04T11:31:20;99457.44;;;36.59;21.84
73501;BME280;61721;42.206;25.320;2022-08-04T11:34:16;99458.75;;;36.30;21.81
73501;BME280;61721;42.206;25.320;2022-08-04T11:36:52;99462.34;;;36.09;22.97
73501;BME280;61721;42.206;25.320;2022-08-04T11:39:27;99464.28;;;35.86;22.06
73501;BME280;61721;42.206;25.320;2022-08-04T11:42:05;99457.13;;;35.44;23.01
73501;BME280;61721;42.206;25.320;2022-08-04T11:45:00;99456.41;;;35.38;22.61
73501;BME280;61721;42.206;25.320;2022-08-04T11:47:33;99459.00;;;35.21;22.48
73501;BME280;61721;42.206;25.320;2022-08-04T11:50:07;99458.88;;;35.12;23.19
73501;BME280;61721;42.206;25.320;2022-08-04T11:52:37;99453.66;;;35.25;22.95
73501;BME280;61721;42.206;25.320;2022-08-04T11:55:12;99446.03;;;35.30;22.81
73501;BME280;61721;42.206;25.320;2022-08-04T11:57:40;99440.91;;;35.59;22.59
73501;BME280;61721;42.206;25.320;2022-08-04T12:00:13;99446.69;;;35.99;22.90
73501;BME280;61721;42.206;25.320;2022-08-04T12:05:57;99431.88;;;36.57;21.13
73501;BME280;61721;42.206;25.320;2022-08-04T12:08:50;99425.94;;;36.89;20.32
73501;BME280;61721;42.206;25.320;2022-08-04T12:11:37;99431.34;;;37.34;19.59
73501;BME280;61721;42.206;25.320;2022-08-04T12:14:13;99435.91;;;37.69;19.26
73501;BME280;61721;42.206;25.320;2022-08-04T12:16:54;99423.56;;;37.70;19.10
73501;BME280;61721;42.206;25.320;2022-08-04T12:19:31;99427.50;;;37.95;18.61
73501;BME280;61721;42.206;25.320;2022-08-04T12:22:04;99415.69;;;37.89;18.93
73501;BME280;61721;42.206;25.320;2022-08-04T12:24:39;99429.19;;;38.04;19.41
73501;BME280;61721;42.206;25.320;2022-08-04T12:27:23;99424.75;;;38.03;18.40
73501;BME280;61721;42.206;25.320;2022-08-04T12:29:52;99410.72;;;37.52;17.91
73501;BME280;61721;42.206;25.320;2022-08-04T12:32:25;99412.69;;;37.43;18.91
73501;BME280;61721;42.206;25.320;2022-08-04T12:35:08;99408.03;;;36.51;19.98
73501;BME280;61721;42.206;25.320;2022-08-04T12:37:46;99407.06;;;36.77;19.69
73501;BME280;61721;42.206;25.320;2022-08-04T12:40:17;99399.63;;;36.42;19.65
73501;BME280;61721;42.206;25.320;2022-08-04T12:42:56;99398.28;;;36.62;20.05
73501;BME280;61721;42.206;25.320;2022-08-04T12:45:29;99400.88;;;35.91;20.33
73501;BME280;61721;42.206;25.320;2022-08-04T12:47:58;99392.66;;;35.86;19.36
73501;BME280;61721;42.206;25.320;2022-08-04T12:50:26;99386.59;;;35.48;19.81
73501;BME280;61721;42.206;25.320;2022-08-04T12:52:55;99389.59;;;35.38;20.36
73501;BME280;61721;42.206;25.320;2022-08-04T12:55:26;99385.72;;;35.12;20.52
73501;BME280;61721;42.206;25.320;2022-08-04T12:58:06;99381.06;;;35.21;19.78
73501;BME280;61721;42.206;25.320;2022-08-04T13:00:37;99387.97;;;35.37;19.34
73501;BME280;61721;42.206;25.320;2022-08-04T13:03:10;99387.03;;;36.00;19.90
73501;BME280;61721;42.206;25.320;2022-08-04T13:05:44;99383.06;;;36.15;18.57
73501;BME280;61721;42.206;25.320;2022-08-04T13:08:12;99378.94;;;36.43;18.85
73501;BME280;61721;42.206;25.320;2022-08-04T13:10:43;99376.91;;;36.04;18.75
73501;BME280;61721;42.206;25.320;2022-08-04T13:13:16;99368.94;;;36.11;18.62
73501;BME280;61721;42.206;25.320;2022-08-04T13:15:53;99366.66;;;35.91;19.24
73501;BME280;61721;42.206;25.320;2022-08-04T13:18:22;99361.94;;;36.22;18.60
73501;BME280;61721;42.206;25.320;2022-08-04T13:20:52;99372.38;;;35.86;19.21
73501;BME280;61721;42.206;25.320;2022-08-04T13:23:25;99369.94;;;35.93;18.35
73501;BME280;61721;42.206;25.320;2022-08-04T13:25:55;99363.31;;;36.33;18.55
73501;BME280;61721;42.206;25.320;2022-08-04T13:28:26;99354.16;;;36.64;17.97
73501;BME280;61721;42.206;25.320;2022-08-04T13:30:55;99360.94;;;36.80;17.62
73501;BME280;61721;42.206;25.320;2022-08-04T13:33:30;99365.16;;;36.69;17.73
73501;BME280;61721;42.206;25.320;2022-08-04T13:35:57;99355.53;;;36.53;17.42
73501;BME280;61721;42.206;25.320;2022-08-04T13:38:27;99364.63;;;36.05;18.59
73501;BME280;61721;42.206;25.320;2022-08-04T13:41:01;99361.09;;;35.91;18.58
73501;BME280;61721;42.206;25.320;2022-08-04T13:43:39;99363.44;;;35.75;19.36
73501;BME280;61721;42.206;25.320;2022-08-04T13:46:12;99362.22;;;35.68;18.83
73501;BME280;61721;42.206;25.320;2022-08-04T13:49:02;99364.75;;;35.78;18.15
73501;BME280;61721;42.206;25.320;2022-08-04T13:51:34;99362.59;;;35.75;18.55
73501;BME280;61721;42.206;25.320;2022-08-04T13:54:09;99368.19;;;35.75;18.53
73501;BME280;61721;42.206;25.320;2022-08-04T13:56:50;99360.91;;;35.51;18.63
73501;BME280;61721;42.206;25.320;2022-08-04T13:59:26;99360.63;;;35.39;19.03
73501;BME280;61721;42.206;25.320;2022-08-04T14:02:25;99354.66;;;35.32;19.01
73501;BME280;61721;42.206;25.320;2022-08-04T14:05:03;99352.84;;;35.28;18.86
73501;BME280;61721;42.206;25.320;2022-08-04T14:07:32;99355.44;;;35.24;19.62
73501;BME280;61721;42.206;25.320;2022-08-04T14:10:11;99350.28;;;35.04;18.50
73501;BME280;61721;42.206;25.320;2022-08-04T14:12:44;99339.88;;;34.96;18.89
73501;BME280;61721;42.206;25.320;2022-08-04T14:15:32;99343.97;;;35.26;18.87
73501;BME280;61721;42.206;25.320;2022-08-04T14:18:16;99339.22;;;35.26;19.10
73501;BME280;61721;42.206;25.320;2022-08-04T14:21:01;99337.38;;;35.35;18.57